createdAt,value
2017-04-20T03:14:59.353Z,2.00
2017-04-20T03:15:58.497Z,2.00
2017-04-20T03:16:57.644Z,2.00
2017-04-20T03:17:57.522Z,1.80
2017-04-20T03:18:56.661Z,1.90
2017-04-20T03:19:55.787Z,1.90
2017-04-20T03:20:54.933Z,1.90
2017-04-20T03:21:54.058Z,1.90
2017-04-20T03:22:53.170Z,1.80
2017-04-20T03:23:52.290Z,1.80
2017-04-20T03:24:51.422Z,1.80
2017-04-20T03:25:50.534Z,1.80
2017-04-20T03:26:49.650Z,1.80
2017-04-20T03:27:48.769Z,1.70
2017-04-20T03:28:48.332Z,1.70
2017-04-20T03:29:47.654Z,1.70
2017-04-20T03:30:46.778Z,1.70
2017-04-20T03:31:45.921Z,1.70
2017-04-20T03:32:45.027Z,1.70
2017-04-20T03:33:44.145Z,1.70
2017-04-20T03:34:43.254Z,1.60
2017-04-20T03:35:42.397Z,1.60
2017-04-20T03:36:41.538Z,1.70
2017-04-20T03:37:40.642Z,1.60
2017-04-20T03:38:39.756Z,1.70
2017-04-20T03:39:38.858Z,1.60
2017-04-20T03:40:39.126Z,1.50
2017-04-20T03:41:38.282Z,1.60
2017-04-20T03:42:37.382Z,1.60
2017-04-20T03:43:36.503Z,1.50
2017-04-20T03:44:35.610Z,1.60
2017-04-20T03:45:35.454Z,1.50
2017-04-20T03:46:34.561Z,1.50
2017-04-20T03:47:33.711Z,1.60
2017-04-20T03:48:33.110Z,1.60
2017-04-20T03:49:32.219Z,1.50
2017-04-20T03:50:31.333Z,1.50
2017-04-20T03:51:30.469Z,1.50
2017-04-20T03:52:29.574Z,1.50
2017-04-20T03:53:28.869Z,1.50
2017-04-20T03:54:27.971Z,1.50
2017-04-20T03:55:27.082Z,1.50
2017-04-20T03:56:26.193Z,1.50
2017-04-20T03:57:25.286Z,1.50
2017-04-20T03:58:24.406Z,1.50
2017-04-20T03:59:23.542Z,1.50
2017-04-20T04:00:23.508Z,1.40
2017-04-20T04:01:22.611Z,1.50
2017-04-20T04:02:21.746Z,1.50
2017-04-20T04:03:20.846Z,1.40
2017-04-20T04:04:19.966Z,1.50
2017-04-20T04:05:19.057Z,1.40
2017-04-20T04:06:18.621Z,1.50
2017-04-20T04:07:17.718Z,1.50
2017-04-20T04:08:16.837Z,1.40
2017-04-20T04:09:15.933Z,1.40
2017-04-20T04:10:15.058Z,1.50
2017-04-20T04:11:14.150Z,1.40
2017-04-20T04:12:13.279Z,1.40
2017-04-20T04:13:12.379Z,1.50
2017-04-20T04:14:11.474Z,1.40
2017-04-20T04:15:10.602Z,1.40
2017-04-20T04:16:09.706Z,1.50
2017-04-20T04:17:17.322Z,1.40
2017-04-20T04:18:17.190Z,1.30
2017-04-20T04:19:16.630Z,1.40
2017-04-20T04:20:15.730Z,1.40
2017-04-20T04:21:14.838Z,1.40
2017-04-20T04:22:13.954Z,1.40
2017-04-20T04:23:13.094Z,1.40
2017-04-20T04:24:12.201Z,1.40
2017-04-20T04:25:11.321Z,1.40
2017-04-20T04:26:10.419Z,1.40
2017-04-20T04:27:10.266Z,1.30
2017-04-20T04:28:09.346Z,1.40
2017-04-20T04:29:08.566Z,1.40
2017-04-20T04:30:07.689Z,1.40
2017-04-20T04:31:06.862Z,1.40
2017-04-20T04:32:06.702Z,1.30
2017-04-20T04:33:05.798Z,1.40
2017-04-20T04:34:04.882Z,1.40
2017-04-20T04:35:04.181Z,1.40
2017-04-20T04:36:03.368Z,1.50
2017-04-20T04:37:02.582Z,1.50
2017-04-20T04:38:01.661Z,1.50
2017-04-20T04:39:00.753Z,1.50
2017-04-20T04:39:59.870Z,1.50
2017-04-20T04:40:59.102Z,1.50
2017-04-20T04:41:58.191Z,1.50
2017-04-20T04:42:57.302Z,1.50
2017-04-20T04:43:56.413Z,1.60
2017-04-20T04:44:56.266Z,1.50
2017-04-20T04:45:55.370Z,1.60
2017-04-20T04:46:55.242Z,1.60
2017-04-20T04:47:54.354Z,1.60
2017-04-20T04:48:53.461Z,1.60
2017-04-20T04:49:52.605Z,1.60
2017-04-20T04:50:51.706Z,1.60
2017-04-20T04:51:50.801Z,1.60
2017-04-20T04:52:50.173Z,1.70
2017-04-20T04:53:49.279Z,1.70
2017-04-20T04:54:48.382Z,1.70
2017-04-20T04:55:47.485Z,1.70
2017-04-20T04:56:46.577Z,1.70
2017-04-20T04:57:45.710Z,1.70
2017-04-20T04:58:44.842Z,1.70
2017-04-20T04:59:43.942Z,1.70
2017-04-20T05:00:43.075Z,1.70
2017-04-20T05:01:42.165Z,1.70
2017-04-20T05:02:41.433Z,1.70
2017-04-20T05:03:40.639Z,1.70
2017-04-20T05:04:40.740Z,1.80
2017-04-20T05:05:40.510Z,1.80
2017-04-20T05:06:39.654Z,1.80
2017-04-20T05:07:39.206Z,1.80
2017-04-20T05:08:51.182Z,1.90
2017-04-20T05:10:03.774Z,2.00
2017-04-20T05:11:12.298Z,2.00
2017-04-20T05:12:11.589Z,2.00
2017-04-20T05:13:10.689Z,2.00
2017-04-20T05:14:09.814Z,2.00
2017-04-20T05:15:08.918Z,2.00
2017-04-20T05:16:08.758Z,2.00
2017-04-20T05:17:07.860Z,2.10
2017-04-20T05:18:06.954Z,2.10
2017-04-20T05:19:06.086Z,2.20
2017-04-20T05:20:05.193Z,2.20
2017-04-20T05:21:04.285Z,2.20
2017-04-20T05:22:03.411Z,2.30
2017-04-20T05:23:02.522Z,2.30
2017-04-20T05:24:02.366Z,2.20
2017-04-20T05:25:01.507Z,2.40
2017-04-20T05:26:01.364Z,2.30
2017-04-20T05:27:00.467Z,2.50
2017-04-20T05:27:59.565Z,2.50
2017-04-20T05:28:58.690Z,2.60
2017-04-20T05:29:57.790Z,2.50
2017-04-20T05:30:57.302Z,2.60
2017-04-20T05:31:56.442Z,2.60
2017-04-20T05:32:56.282Z,2.50
2017-04-20T05:33:55.381Z,2.70
2017-04-20T05:34:54.483Z,2.80
2017-04-20T05:35:53.578Z,2.80
2017-04-20T05:36:52.707Z,2.80
2017-04-20T05:37:51.825Z,2.90
2017-04-20T05:38:50.925Z,3.00
2017-04-20T05:39:50.023Z,3.00
2017-04-20T05:40:49.151Z,3.10
2017-04-20T05:41:48.267Z,3.10
2017-04-20T05:42:47.378Z,3.10
2017-04-20T05:43:46.478Z,3.20
2017-04-20T05:44:45.569Z,3.20
2017-04-20T05:45:45.442Z,3.10
2017-04-20T05:46:44.550Z,3.20
2017-04-20T05:47:43.745Z,3.20
2017-04-20T05:48:43.585Z,3.20
2017-04-20T05:49:42.687Z,3.40
2017-04-20T05:50:41.783Z,3.40
2017-04-20T05:51:40.959Z,3.50
2017-04-20T05:52:40.059Z,3.50
2017-04-20T05:53:39.165Z,3.60
2017-04-20T05:54:38.266Z,3.60
2017-04-20T05:55:37.365Z,3.70
2017-04-20T05:56:36.461Z,3.70
2017-04-20T05:57:35.577Z,3.70
2017-04-20T05:58:34.672Z,3.70
2017-04-20T05:59:34.022Z,3.70
2017-04-20T06:00:33.109Z,3.80
2017-04-20T06:01:32.426Z,3.80
2017-04-20T06:02:31.879Z,3.90
2017-04-20T06:03:32.166Z,4.00
2017-04-20T06:04:31.627Z,4.00
2017-04-20T06:05:31.639Z,4.10
2017-04-20T06:06:31.053Z,4.10
2017-04-20T06:07:30.720Z,4.20
2017-04-20T06:08:30.836Z,4.20
2017-04-20T06:09:30.246Z,4.30
2017-04-20T06:10:29.851Z,4.30
2017-04-20T06:11:29.582Z,4.30
2017-04-20T06:12:28.718Z,4.40
2017-04-20T06:13:27.894Z,4.40
2017-04-20T06:14:27.009Z,4.40
2017-04-20T06:15:26.162Z,4.50
2017-04-20T06:16:25.268Z,4.50
2017-04-20T06:17:24.370Z,4.60
2017-04-20T06:18:23.490Z,4.60
2017-04-20T06:19:22.586Z,4.60
2017-04-20T06:20:21.690Z,4.70
2017-04-20T06:21:20.821Z,4.80
2017-04-20T06:22:20.305Z,4.80
2017-04-20T06:23:19.418Z,4.90
2017-04-20T06:24:19.269Z,4.80
2017-04-20T06:25:18.773Z,5.00
2017-04-20T06:26:17.910Z,5.00
2017-04-20T06:27:17.010Z,5.00
2017-04-20T06:28:16.126Z,5.00
2017-04-20T06:29:15.231Z,5.10
2017-04-20T06:30:14.334Z,5.10
2017-04-20T06:31:13.526Z,5.20
2017-04-20T06:32:12.625Z,5.30
2017-04-20T06:33:12.468Z,5.20
2017-04-20T06:34:11.569Z,5.40
2017-04-20T06:35:10.809Z,5.30
2017-04-20T06:36:10.650Z,5.30
2017-04-20T06:37:09.790Z,5.40
2017-04-20T06:38:09.133Z,5.40
2017-04-20T06:39:08.242Z,5.50
2017-04-20T06:40:07.337Z,5.50
2017-04-20T06:41:06.450Z,5.60
2017-04-20T06:42:06.295Z,5.60
2017-04-20T06:43:05.440Z,5.80
2017-04-20T06:44:04.538Z,5.80
2017-04-20T06:45:03.650Z,5.90
2017-04-20T06:46:02.754Z,5.90
2017-04-20T06:47:01.858Z,6.00
2017-04-20T06:48:00.954Z,6.10
2017-04-20T06:49:00.918Z,6.00
2017-04-20T06:50:00.054Z,6.20
2017-04-20T06:50:59.149Z,6.20
2017-04-20T06:51:58.245Z,6.30
2017-04-20T06:52:57.345Z,6.40
2017-04-20T06:53:56.614Z,6.30
2017-04-20T06:54:55.750Z,6.30
2017-04-20T06:55:54.877Z,6.30
2017-04-20T06:56:53.982Z,6.40
2017-04-20T06:57:53.095Z,6.40
2017-04-20T06:58:52.238Z,6.50
2017-04-20T06:59:51.346Z,6.50
2017-04-20T07:00:50.485Z,6.50
2017-04-20T07:01:49.610Z,6.50
2017-04-20T07:02:55.041Z,6.60
2017-04-20T07:03:54.417Z,6.60
2017-04-20T07:04:53.545Z,6.60
2017-04-20T07:05:52.794Z,6.70
2017-04-20T07:06:52.681Z,6.60
2017-04-20T07:07:51.785Z,6.70
2017-04-20T07:08:51.650Z,6.70
2017-04-20T07:09:50.746Z,6.80
2017-04-20T07:11:49.355Z,6.90
2017-04-20T07:12:49.217Z,6.80
2017-04-20T07:13:48.362Z,7.00
2017-04-20T07:14:47.549Z,7.10
2017-04-20T07:15:46.650Z,7.10
2017-04-20T07:16:45.741Z,7.20
2017-04-20T07:17:44.929Z,7.20
2017-04-20T07:18:44.034Z,7.30
2017-04-20T07:19:43.141Z,7.40
2017-04-20T07:20:42.262Z,7.40
2017-04-20T07:21:42.410Z,7.40
2017-04-20T07:22:41.622Z,7.40
2017-04-20T07:23:40.751Z,7.40
2017-04-20T07:24:39.850Z,7.30
2017-04-20T07:25:39.017Z,7.30
2017-04-20T07:26:38.182Z,7.40
2017-04-20T07:27:37.295Z,7.40
2017-04-20T07:28:36.483Z,7.50
2017-04-20T07:29:35.578Z,7.50
2017-04-20T07:30:35.596Z,7.60
2017-04-20T07:31:35.860Z,7.60
2017-04-20T07:32:36.152Z,7.60
2017-04-20T07:33:36.362Z,7.50
2017-04-20T07:34:36.413Z,7.50
2017-04-20T07:35:36.410Z,7.50
2017-04-20T07:36:36.121Z,7.50
2017-04-20T07:37:35.828Z,7.50
2017-04-20T07:38:35.770Z,7.60
2017-04-20T07:39:35.517Z,7.60
2017-04-20T07:40:35.248Z,7.70
2017-04-20T07:41:35.445Z,7.50
2017-04-20T07:42:34.990Z,7.40
2017-04-20T07:43:34.667Z,7.30
2017-04-20T07:44:35.005Z,7.30
2017-04-20T07:45:34.816Z,7.30
2017-04-20T07:46:34.600Z,7.20
2017-04-20T07:47:34.423Z,7.20
2017-04-20T07:48:35.034Z,7.00
2017-04-20T07:49:34.748Z,7.10
2017-04-20T07:50:34.723Z,7.10
2017-04-20T07:51:35.003Z,7.20
2017-04-20T07:52:34.826Z,7.40
2017-04-20T07:53:34.576Z,7.40
2017-04-20T07:54:34.235Z,7.40
2017-04-20T07:55:33.373Z,7.40
2017-04-20T07:56:32.531Z,7.40
2017-04-20T07:57:31.618Z,7.60
2017-04-20T07:58:30.717Z,7.70
2017-04-20T07:59:30.575Z,7.70
2017-04-20T08:00:29.661Z,7.90
2017-04-20T08:01:28.759Z,8.00
2017-04-20T08:02:30.410Z,8.10
2017-04-20T08:03:29.542Z,8.10
2017-04-20T08:04:29.378Z,7.90
2017-04-20T08:05:28.477Z,7.80
2017-04-20T08:06:27.578Z,7.90
2017-04-20T08:07:26.691Z,8.00
2017-04-20T08:08:25.921Z,7.90
2017-04-20T08:09:25.050Z,8.00
2017-04-20T08:10:24.173Z,8.10
2017-04-20T08:11:23.342Z,8.20
2017-04-20T08:12:22.478Z,8.20
2017-04-20T08:13:21.589Z,7.90
2017-04-20T08:14:20.966Z,7.80
2017-04-20T08:15:20.067Z,7.90
2017-04-20T08:16:19.167Z,8.00
2017-04-20T08:17:18.289Z,8.10
2017-04-20T08:18:17.389Z,8.20
2017-04-20T08:19:16.477Z,8.10
2017-04-20T08:20:15.621Z,7.90
2017-04-20T08:21:14.746Z,7.80
2017-04-20T08:22:13.842Z,7.70
2017-04-20T08:23:12.949Z,7.70
2017-04-20T08:24:12.058Z,7.70
2017-04-20T08:25:11.210Z,7.80
2017-04-20T08:26:11.384Z,7.80
2017-04-20T08:27:10.486Z,7.90
2017-04-20T08:28:09.606Z,7.90
2017-04-20T08:29:08.703Z,8.00
2017-04-20T08:30:08.596Z,7.90
2017-04-20T08:31:07.731Z,7.80
2017-04-20T08:32:06.885Z,7.70
2017-04-20T08:33:05.986Z,7.60
2017-04-20T08:34:05.129Z,7.60
2017-04-20T08:35:04.285Z,7.50
2017-04-20T08:36:03.397Z,7.40
2017-04-20T08:37:02.574Z,7.40
2017-04-20T08:38:01.706Z,7.50
2017-04-20T08:39:00.819Z,7.60
2017-04-20T08:39:59.931Z,7.70
2017-04-20T08:40:59.406Z,7.80
2017-04-20T08:41:59.518Z,7.70
2017-04-20T08:42:58.646Z,7.70
2017-04-20T08:43:57.746Z,7.50
2017-04-20T08:44:56.862Z,7.50
2017-04-20T08:45:56.714Z,7.50
2017-04-20T08:46:55.833Z,7.60
2017-04-20T08:47:54.954Z,7.60
2017-04-20T08:48:54.181Z,7.60
2017-04-20T08:49:53.282Z,7.70
2017-04-20T08:50:52.402Z,7.80
2017-04-20T08:51:52.275Z,7.80
2017-04-20T08:52:51.410Z,8.00
2017-04-20T08:53:51.301Z,7.90
2017-04-20T08:54:53.809Z,7.90
2017-04-20T08:55:52.914Z,8.20
2017-04-20T08:56:52.022Z,8.30
2017-04-20T08:57:51.130Z,8.30
2017-04-20T08:58:50.235Z,8.40
2017-04-20T08:59:49.507Z,8.40
2017-04-20T09:00:48.613Z,8.50
2017-04-20T09:01:47.722Z,8.60
2017-04-20T09:02:46.834Z,8.70
2017-04-20T09:04:45.351Z,8.50
2017-04-20T09:05:44.490Z,8.50
2017-04-20T09:06:43.618Z,8.50
2017-04-20T09:07:42.729Z,8.60
2017-04-20T09:08:41.842Z,8.60
2017-04-20T09:09:41.026Z,8.50
2017-04-20T09:10:40.125Z,8.50
2017-04-20T09:11:39.243Z,8.60
2017-04-20T09:12:38.382Z,8.60
2017-04-20T09:13:37.493Z,8.50
2017-04-20T09:14:36.593Z,8.50
2017-04-20T09:15:36.450Z,8.50
2017-04-20T09:16:35.573Z,8.50
2017-04-20T09:17:35.422Z,8.30
2017-04-20T09:18:34.927Z,8.30
2017-04-20T09:19:34.039Z,8.30
2017-04-20T09:20:33.146Z,8.40
2017-04-20T09:21:32.998Z,8.40
2017-04-20T09:22:32.114Z,8.60
2017-04-20T09:23:31.217Z,8.60
2017-04-20T09:24:30.370Z,8.60
2017-04-20T09:25:29.484Z,8.50
2017-04-20T09:26:28.598Z,8.40
2017-04-20T09:27:27.706Z,8.40
2017-04-20T09:28:26.865Z,8.40
2017-04-20T09:29:25.970Z,8.50
2017-04-20T09:30:26.105Z,8.60
2017-04-20T09:31:25.253Z,8.70
2017-04-20T09:32:24.350Z,8.80
2017-04-20T09:33:24.199Z,8.90
2017-04-20T09:34:23.298Z,9.10
2017-04-20T09:35:22.422Z,9.10
2017-04-20T09:36:21.569Z,9.10
2017-04-20T09:37:20.674Z,8.90
2017-04-20T09:38:20.535Z,8.80
2017-04-20T09:39:19.658Z,8.90
2017-04-20T09:40:18.809Z,8.80
2017-04-20T09:41:17.933Z,8.70
2017-04-20T09:42:17.994Z,8.70
2017-04-20T09:43:17.090Z,8.80
2017-04-20T09:44:16.490Z,8.90
2017-04-20T09:45:15.615Z,9.00
2017-04-20T09:46:14.763Z,9.10
2017-04-20T09:47:13.877Z,9.20
2017-04-20T09:48:13.818Z,9.30
2017-04-20T09:49:12.931Z,9.50
2017-04-20T09:50:12.773Z,9.40
2017-04-20T09:51:11.909Z,9.50
2017-04-20T09:52:11.015Z,9.50
2017-04-20T09:53:10.861Z,9.40
2017-04-20T09:54:09.958Z,9.60
2017-04-20T09:55:09.058Z,9.60
2017-04-20T09:56:08.197Z,9.60
2017-04-20T09:57:07.305Z,9.70
2017-04-20T09:58:06.419Z,9.70
2017-04-20T09:59:05.518Z,9.80
2017-04-20T10:00:04.650Z,9.80
2017-04-20T10:01:03.829Z,9.80
2017-04-20T10:02:02.965Z,9.90
2017-04-20T10:03:02.202Z,9.80
2017-04-20T10:04:01.306Z,9.70
2017-04-20T10:05:00.410Z,9.60
2017-04-20T10:05:59.505Z,9.50
2017-04-20T10:06:58.610Z,9.60
2017-04-20T10:07:57.726Z,9.50
2017-04-20T10:08:56.976Z,9.50
2017-04-20T10:09:56.093Z,9.70
2017-04-20T10:10:55.186Z,9.80
2017-04-20T10:11:54.294Z,9.90
2017-04-20T10:12:53.406Z,9.80
2017-04-20T10:13:52.513Z,9.70
2017-04-20T10:14:51.661Z,9.80
2017-04-20T10:15:50.777Z,9.90
2017-04-20T10:16:49.939Z,9.90
2017-04-20T10:17:49.329Z,10.00
2017-04-20T10:18:48.432Z,10.20
2017-04-20T10:19:47.534Z,10.30
2017-04-20T10:20:46.713Z,10.30
2017-04-20T10:21:45.837Z,10.30
2017-04-20T10:22:44.977Z,10.40
2017-04-20T10:23:44.082Z,10.40
2017-04-20T10:24:43.238Z,10.60
2017-04-20T10:25:42.340Z,10.60
2017-04-20T10:26:41.938Z,10.60
2017-04-20T10:27:41.046Z,10.60
2017-04-20T10:28:40.150Z,10.80
2017-04-20T10:29:39.259Z,10.70
2017-04-20T10:30:39.134Z,10.60
2017-04-20T10:31:38.247Z,10.60
2017-04-20T10:32:37.385Z,10.50
2017-04-20T10:33:36.597Z,10.40
2017-04-20T10:34:35.718Z,10.10
2017-04-20T10:35:35.579Z,9.90
2017-04-20T10:36:34.867Z,9.90
2017-04-20T10:37:34.706Z,9.90
2017-04-20T10:38:33.805Z,9.90
2017-04-20T10:39:32.902Z,9.90
2017-04-20T10:40:32.002Z,9.80
2017-04-20T10:41:31.101Z,9.90
2017-04-20T10:42:30.464Z,10.00
2017-04-20T10:43:29.566Z,10.00
2017-04-20T10:44:28.674Z,10.10
2017-04-20T10:45:27.778Z,10.20
2017-04-20T10:46:27.054Z,10.20
2017-04-20T10:47:26.158Z,10.30
2017-04-20T10:48:25.299Z,10.50
2017-04-20T10:49:25.150Z,10.40
2017-04-20T10:50:24.262Z,10.50
2017-04-20T10:51:23.358Z,10.50
2017-04-20T10:52:22.486Z,10.60
2017-04-20T10:53:21.589Z,10.50
2017-04-20T10:54:20.694Z,10.50
2017-04-20T10:55:19.846Z,10.50
2017-04-20T10:56:19.690Z,10.50
2017-04-20T10:57:18.866Z,10.60
2017-04-20T10:58:17.969Z,10.50
2017-04-20T10:59:17.074Z,10.60
2017-04-20T11:00:16.181Z,10.40
2017-04-20T11:01:16.054Z,10.10
2017-04-20T11:02:15.242Z,10.00
2017-04-20T11:03:14.431Z,9.90
2017-04-20T11:04:13.533Z,9.80
2017-04-20T11:05:12.626Z,9.80
2017-04-20T11:06:11.729Z,9.80
2017-04-20T11:07:11.570Z,9.60
2017-04-20T11:08:10.666Z,9.80
2017-04-20T11:09:09.798Z,9.90
2017-04-20T11:10:09.641Z,9.90
2017-04-20T11:11:08.750Z,10.00
2017-04-20T11:12:07.857Z,10.20
2017-04-20T11:13:06.970Z,10.00
2017-04-20T11:14:06.082Z,10.00
2017-04-20T11:15:05.230Z,10.00
2017-04-20T11:16:05.078Z,9.80
2017-04-20T11:17:04.191Z,10.00
2017-04-20T11:18:03.294Z,10.10
2017-04-20T11:19:02.397Z,10.10
2017-04-20T11:20:02.274Z,10.00
2017-04-20T11:21:01.379Z,10.10
2017-04-20T11:22:01.249Z,10.00
2017-04-20T11:23:00.350Z,10.10
2017-04-20T11:23:59.454Z,10.20
2017-04-20T11:24:59.309Z,10.20
2017-04-20T11:25:58.453Z,10.30
2017-04-20T11:26:58.301Z,10.20
2017-04-20T11:27:57.418Z,10.30
2017-04-20T11:28:56.529Z,10.20
2017-04-20T11:29:56.377Z,10.20
2017-04-20T11:30:55.481Z,10.30
2017-04-20T11:31:54.714Z,10.20
2017-04-20T11:32:53.838Z,10.30
2017-04-20T11:33:53.690Z,10.20
2017-04-20T11:34:52.818Z,10.40
2017-04-20T11:35:51.926Z,10.40
2017-04-20T11:36:51.026Z,10.40
2017-04-20T11:37:50.166Z,10.50
2017-04-20T11:38:49.278Z,10.50
2017-04-20T11:39:48.430Z,10.50
2017-04-20T11:40:47.545Z,10.40
2017-04-20T11:41:46.654Z,10.20
2017-04-20T11:42:45.769Z,10.10
2017-04-20T11:43:45.705Z,9.90
2017-04-20T11:44:44.809Z,9.90
2017-04-20T11:45:43.910Z,9.90
2017-04-20T11:46:43.014Z,10.00
2017-04-20T11:47:42.143Z,10.00
2017-04-20T11:48:41.254Z,10.10
2017-04-20T11:49:40.498Z,10.10
2017-04-20T11:50:40.350Z,10.00
2017-04-20T11:51:39.490Z,10.10
2017-04-20T11:52:38.598Z,10.10
2017-04-20T11:53:37.706Z,10.20
2017-04-20T11:54:36.806Z,10.20
2017-04-20T11:55:35.967Z,10.30
2017-04-20T11:56:35.082Z,10.40
2017-04-20T11:57:34.229Z,10.20
2017-04-20T11:58:33.350Z,10.20
2017-04-20T11:59:32.486Z,10.10
2017-04-20T12:00:31.605Z,10.10
2017-04-20T12:01:30.774Z,10.10
2017-04-20T12:02:29.880Z,10.20
2017-04-20T12:03:29.334Z,10.30
2017-04-20T12:04:28.438Z,10.40
2017-04-20T12:05:27.553Z,10.50
2017-04-20T12:06:26.671Z,10.40
2017-04-20T12:07:26.572Z,10.10
2017-04-20T12:08:25.690Z,10.10
2017-04-20T12:09:24.830Z,10.10
2017-04-20T12:10:23.947Z,10.10
2017-04-20T12:11:23.058Z,10.00
2017-04-20T12:12:22.174Z,9.90
2017-04-20T12:13:21.300Z,9.80
2017-04-20T12:14:20.451Z,9.80
2017-04-20T12:15:19.583Z,9.90
2017-04-20T12:16:18.694Z,10.00
2017-04-20T12:17:17.847Z,10.10
2017-04-20T12:18:17.710Z,10.00
2017-04-20T12:19:16.809Z,10.20
2017-04-20T12:20:15.990Z,10.30
2017-04-20T12:21:15.089Z,10.30
2017-04-20T12:22:14.194Z,10.30
2017-04-20T12:23:14.073Z,10.20
2017-04-20T12:24:13.182Z,10.50
2017-04-20T12:25:13.030Z,10.50
2017-04-20T12:26:12.182Z,10.50
2017-04-20T12:27:12.029Z,10.40
2017-04-20T12:28:11.130Z,10.60
2017-04-20T12:29:10.241Z,10.70
2017-04-20T12:30:09.334Z,10.70
2017-04-20T12:31:08.438Z,10.70
2017-04-20T12:32:07.672Z,10.60
2017-04-20T12:33:06.826Z,10.60
2017-04-20T12:34:05.933Z,10.60
2017-04-20T12:35:05.038Z,10.70
2017-04-20T12:36:04.881Z,10.70
2017-04-20T12:37:04.009Z,10.90
2017-04-20T12:38:03.934Z,10.80
2017-04-20T12:39:03.101Z,11.00
2017-04-20T12:40:02.202Z,11.00
2017-04-20T12:41:01.309Z,10.90
2017-04-20T12:42:00.627Z,11.00
2017-04-20T12:42:59.909Z,11.00
2017-04-20T12:43:59.034Z,11.00
2017-04-20T12:44:58.475Z,11.10
2017-04-20T12:45:57.588Z,11.10
2017-04-20T12:46:56.719Z,11.00
2017-04-20T12:47:55.866Z,11.00
2017-04-20T12:48:54.961Z,10.90
2017-04-20T12:49:54.065Z,10.90
2017-04-20T12:50:53.181Z,10.80
2017-04-20T12:51:52.306Z,10.90
2017-04-20T12:52:51.414Z,11.00
2017-04-20T12:53:50.541Z,11.00
2017-04-20T12:54:49.666Z,10.90
2017-04-20T12:55:48.771Z,10.90
2017-04-20T12:56:47.902Z,10.80
2017-04-20T12:57:47.046Z,10.70
2017-04-20T12:58:46.153Z,10.70
2017-04-20T12:59:45.302Z,10.80
2017-04-20T13:00:44.487Z,10.80
2017-04-20T13:01:43.634Z,10.90
2017-04-20T13:02:42.755Z,10.90
2017-04-20T13:03:41.853Z,11.00
2017-04-20T13:04:40.963Z,11.10
2017-04-20T13:05:40.946Z,10.90
2017-04-20T13:06:40.050Z,10.90
2017-04-20T13:07:39.166Z,10.80
2017-04-20T13:08:38.270Z,10.70
2017-04-20T13:09:37.414Z,10.70
2017-04-20T13:10:36.566Z,10.70
2017-04-20T13:11:38.356Z,10.80
2017-04-20T13:12:37.470Z,10.80
2017-04-20T13:13:36.582Z,10.80
2017-04-20T13:14:36.417Z,10.70
2017-04-20T13:15:35.527Z,10.90
2017-04-20T13:16:34.625Z,10.90
2017-04-20T13:17:33.757Z,11.10
2017-04-20T13:18:32.923Z,11.00
2017-04-20T13:19:32.029Z,11.10
2017-04-20T13:20:31.134Z,11.10
2017-04-20T13:21:30.401Z,11.20
2017-04-20T13:22:29.506Z,11.20
2017-04-20T13:23:29.735Z,11.20
2017-04-20T13:24:28.837Z,11.30
2017-04-20T13:25:27.955Z,11.30
2017-04-20T13:26:27.082Z,11.30
2017-04-20T13:27:26.194Z,11.40
2017-04-20T13:28:25.297Z,11.40
2017-04-20T13:29:24.542Z,11.40
2017-04-20T13:30:23.664Z,11.50
2017-04-20T13:31:22.782Z,11.50
2017-04-20T13:32:21.881Z,11.50
2017-04-20T13:33:20.994Z,11.50
2017-04-20T13:34:20.125Z,11.40
2017-04-20T13:35:19.995Z,11.30
2017-04-20T13:36:19.094Z,11.50
2017-04-20T13:37:18.206Z,11.50
2017-04-20T13:38:18.073Z,11.70
2017-04-20T13:39:17.197Z,12.10
2017-04-20T13:40:17.865Z,12.30
2017-04-20T13:41:16.979Z,12.50
2017-04-20T13:42:16.078Z,12.60
2017-04-20T13:43:15.189Z,12.70
2017-04-20T13:44:14.299Z,12.90
2017-04-20T13:45:13.398Z,13.10
2017-04-20T13:46:12.686Z,13.20
2017-04-20T13:47:11.802Z,13.30
2017-04-20T13:48:10.914Z,13.30
2017-04-20T13:49:10.795Z,13.10
2017-04-20T13:50:09.902Z,13.20
2017-04-20T13:51:09.743Z,13.20
2017-04-20T13:52:08.874Z,13.30
2017-04-20T13:53:08.010Z,13.40
2017-04-20T13:54:07.135Z,13.50
2017-04-20T13:55:06.241Z,13.60
2017-04-20T13:56:05.389Z,13.50
2017-04-20T13:57:04.490Z,13.50
2017-04-20T13:59:03.005Z,13.40
2017-04-20T14:00:02.859Z,13.20
2017-04-20T14:01:01.967Z,13.30
2017-04-20T14:02:01.107Z,13.40
2017-04-20T14:03:00.221Z,13.40
2017-04-20T14:03:59.343Z,13.40
2017-04-20T14:04:58.445Z,13.50
2017-04-20T14:05:57.557Z,13.50
2017-04-20T14:06:56.665Z,13.60
2017-04-20T14:07:55.818Z,13.40
2017-04-20T14:08:54.926Z,13.40
2017-04-20T14:09:54.037Z,13.40
2017-04-20T14:10:53.144Z,13.30
2017-04-20T14:11:52.420Z,13.40
2017-04-20T14:12:51.530Z,13.50
2017-04-20T14:13:50.867Z,13.50
2017-04-20T14:14:49.970Z,13.50
2017-04-20T14:15:49.077Z,13.50
2017-04-20T14:16:48.179Z,13.40
2017-04-20T14:17:47.325Z,13.40
2017-04-20T14:18:46.430Z,13.10
2017-04-20T14:19:45.605Z,13.00
2017-04-20T14:20:44.718Z,12.70
2017-04-20T14:21:44.575Z,12.60
2017-04-20T14:22:43.688Z,12.60
2017-04-20T14:23:42.829Z,12.50
2017-04-20T14:24:41.933Z,12.50
2017-04-20T14:25:41.038Z,12.60
2017-04-20T14:26:40.150Z,12.80
2017-04-20T14:27:40.316Z,12.80
2017-04-20T14:28:39.432Z,13.00
2017-04-20T14:30:38.781Z,13.10
2017-04-20T14:31:37.886Z,13.20
2017-04-20T14:32:36.986Z,13.30
2017-04-20T14:33:36.141Z,13.40
2017-04-20T14:34:35.254Z,13.50
2017-04-20T14:35:34.358Z,13.60
2017-04-20T14:36:33.467Z,13.70
2017-04-20T14:37:33.334Z,13.60
2017-04-20T14:38:32.426Z,13.70
2017-04-20T14:39:31.698Z,13.70
2017-04-20T14:40:30.798Z,13.70
2017-04-20T14:41:29.906Z,13.80
2017-04-20T14:42:29.006Z,13.80
2017-04-20T14:43:28.120Z,13.70
2017-04-20T14:44:27.230Z,13.80
2017-04-20T14:45:26.517Z,13.80
2017-04-20T14:46:25.663Z,13.70
2017-04-20T14:47:24.774Z,13.60
2017-04-20T14:48:23.899Z,13.60
2017-04-20T14:49:23.065Z,13.60
2017-04-20T14:50:22.198Z,13.50
2017-04-20T14:51:22.134Z,13.40
2017-04-20T14:52:21.253Z,13.40
2017-04-20T14:53:20.490Z,13.30
2017-04-20T14:54:19.597Z,13.30
2017-04-20T14:55:18.714Z,13.40
2017-04-20T14:56:17.830Z,13.40
2017-04-20T14:57:17.018Z,13.40
2017-04-20T14:58:16.125Z,13.30
2017-04-20T14:59:15.230Z,13.20
2017-04-20T15:00:14.390Z,13.30
2017-04-20T15:01:13.498Z,13.20
2017-04-20T15:02:12.605Z,13.30
2017-04-20T15:03:11.750Z,13.40
2017-04-20T15:04:10.893Z,13.60
2017-04-20T15:05:10.043Z,13.70
2017-04-20T15:06:09.163Z,13.80
2017-04-20T15:07:08.268Z,13.80
2017-04-20T15:08:37.478Z,15.00
2017-04-20T15:09:37.322Z,14.80
2017-04-20T15:10:36.414Z,14.40
2017-04-20T15:11:35.510Z,14.00
2017-04-20T15:12:35.226Z,13.40
2017-04-20T15:13:34.342Z,13.00
2017-04-20T15:14:35.718Z,13.00
2017-04-20T15:15:34.813Z,13.30
2017-04-20T15:16:33.929Z,13.30
2017-04-20T15:17:33.026Z,13.20
2017-04-20T15:18:32.903Z,13.00
2017-04-20T15:19:32.006Z,13.20
2017-04-20T15:20:31.137Z,13.40
2017-04-20T15:21:30.241Z,13.60
2017-04-20T15:22:29.337Z,13.90
2017-04-20T15:23:28.432Z,13.60
2017-04-20T15:24:27.533Z,13.10
2017-04-20T15:25:26.630Z,13.10
2017-04-20T15:26:25.758Z,13.20
2017-04-20T15:27:24.858Z,13.00
2017-04-20T15:28:23.961Z,12.90
2017-04-20T15:29:23.072Z,12.80
2017-04-20T15:30:22.169Z,12.60
2017-04-20T15:31:22.009Z,12.70
2017-04-20T15:32:21.129Z,13.10
2017-04-20T15:33:20.266Z,13.30
2017-04-20T15:34:19.410Z,13.20
2017-04-20T15:35:18.550Z,13.30
2017-04-20T15:36:17.653Z,13.30
2017-04-20T15:37:16.806Z,13.30
2017-04-20T15:38:15.901Z,13.50
2017-04-20T15:39:15.010Z,13.70
2017-04-20T15:40:14.134Z,13.70
2017-04-20T15:41:13.229Z,13.10
2017-04-20T15:42:13.077Z,12.70
2017-04-20T15:43:12.170Z,12.60
2017-04-20T15:44:11.278Z,12.60
2017-04-20T15:45:10.375Z,12.70
2017-04-20T15:46:09.510Z,12.80
2017-04-20T15:47:08.610Z,13.10
2017-04-20T15:48:07.717Z,13.00
2017-04-20T15:49:06.810Z,13.10
2017-04-20T15:50:07.065Z,12.80
2017-04-20T15:51:06.165Z,13.20
2017-04-20T15:52:05.306Z,13.10
2017-04-20T15:53:04.430Z,12.90
2017-04-20T15:54:03.534Z,12.60
2017-04-20T15:55:02.627Z,12.70
2017-04-20T15:56:01.721Z,12.70
2017-04-20T15:57:00.818Z,12.80
2017-04-20T15:57:59.978Z,12.80
2017-04-20T15:58:59.098Z,12.90
2017-04-20T15:59:58.194Z,13.00
2017-04-20T16:00:57.301Z,13.00
2017-04-20T16:01:57.142Z,13.20
2017-04-20T16:02:56.242Z,13.20
2017-04-20T16:03:55.398Z,13.10
2017-04-20T16:04:54.507Z,13.60
2017-04-20T16:05:53.610Z,14.50
2017-04-20T16:06:52.706Z,15.30
2017-04-20T16:08:51.202Z,16.80
2017-04-20T16:09:51.074Z,17.00
2017-04-20T16:10:50.202Z,17.30
2017-04-20T16:11:49.342Z,17.60
2017-04-20T16:12:48.442Z,17.80
2017-04-20T16:13:47.534Z,18.00
2017-04-20T16:14:46.690Z,18.20
2017-04-20T16:15:45.822Z,18.40
2017-04-20T16:16:44.958Z,18.60
2017-04-20T16:17:44.050Z,18.70
2017-04-20T16:18:43.151Z,18.80